FIN4AW ESSA-EFHK
Flight info
| Callsign | FIN4AW |
|---|---|
| Flight time | 0h 42m |
| Altitude | 29000 |
| Route | TOVRI N851 RIKUM DCT RIRIP Y364 LAKUT |
| Aircraft | A321/M-SADE1E2E3FGIJ1M3RWXYZ/LB1 |
Departure
| Time | 2026-04-24 09:24 |
|---|---|
| Airport | Stockholm-Arlanda Airport (ESSA) |
Arrival
| Time | 2026-04-24 10:06 |
|---|---|
| Airport | Helsinki Vantaa Airport (EFHK) |
| Time | Latitude | Longitude | Altitude | Speed | Heading |
|---|---|---|---|---|---|
| 2026-04-24 08:53 | 59.64366 | 17.92799 | 138 ft | 0 kts | 43° |
| 2026-04-24 09:14 | 59.64351 | 17.92773 | 138 ft | 3 kts | 43° |
| 2026-04-24 09:14 | 59.64337 | 17.92748 | 138 ft | 3 kts | 43° |
| 2026-04-24 09:14 | 59.64320 | 17.92716 | 138 ft | 3 kts | 43° |
| 2026-04-24 09:15 | 59.64306 | 17.92691 | 138 ft | 3 kts | 42° |
| 2026-04-24 09:15 | 59.64299 | 17.92677 | 138 ft | 0 kts | 42° |
| 2026-04-24 09:17 | 59.64308 | 17.92677 | 138 ft | 2 kts | 342° |
| 2026-04-24 09:18 | 59.64301 | 17.92624 | 138 ft | 9 kts | 245° |
| 2026-04-24 09:18 | 59.64254 | 17.92491 | 138 ft | 13 kts | 214° |
| 2026-04-24 09:18 | 59.64241 | 17.92336 | 138 ft | 13 kts | 292° |
| 2026-04-24 09:18 | 59.64286 | 17.92162 | 138 ft | 15 kts | 298° |
| 2026-04-24 09:19 | 59.64335 | 17.91978 | 138 ft | 11 kts | 298° |
| 2026-04-24 09:19 | 59.64405 | 17.91929 | 138 ft | 12 kts | 9° |
| 2026-04-24 09:19 | 59.64508 | 17.91967 | 138 ft | 18 kts | 9° |
| 2026-04-24 09:19 | 59.64641 | 17.92016 | 138 ft | 20 kts | 11° |
| 2026-04-24 09:20 | 59.64780 | 17.92066 | 138 ft | 21 kts | 9° |
| 2026-04-24 09:20 | 59.64924 | 17.92117 | 138 ft | 21 kts | 12° |
| 2026-04-24 09:20 | 59.65074 | 17.92174 | 138 ft | 22 kts | 10° |
| 2026-04-24 09:20 | 59.65229 | 17.92229 | 138 ft | 23 kts | 9° |
| 2026-04-24 09:21 | 59.65369 | 17.92279 | 138 ft | 16 kts | 10° |
| 2026-04-24 09:21 | 59.65458 | 17.92407 | 138 ft | 17 kts | 46° |
| 2026-04-24 09:21 | 59.65529 | 17.92605 | 138 ft | 18 kts | 71° |
| 2026-04-24 09:21 | 59.65561 | 17.92861 | 138 ft | 20 kts | 76° |
| 2026-04-24 09:22 | 59.65597 | 17.93137 | 138 ft | 22 kts | 75° |
| 2026-04-24 09:22 | 59.65673 | 17.93389 | 138 ft | 22 kts | 46° |
| 2026-04-24 09:22 | 59.65747 | 17.93537 | 138 ft | 23 kts | 45° |
| 2026-04-24 09:22 | 59.65854 | 17.93750 | 138 ft | 10 kts | 57° |
| 2026-04-24 09:23 | 59.65871 | 17.93843 | 137 ft | 0 kts | 77° |
| 2026-04-24 09:23 | 59.65874 | 17.93865 | 137 ft | 8 kts | 76° |
| 2026-04-24 09:23 | 59.65957 | 17.94508 | 139 ft | 89 kts | 76° |
| 2026-04-24 09:23 | 59.66167 | 17.96157 | 155 ft | 154 kts | 70° |
| 2026-04-24 09:24 | 59.66430 | 17.98181 | 930 ft | 149 kts | 71° |
| 2026-04-24 09:24 | 59.66688 | 18.00192 | 1668 ft | 158 kts | 71° |
| 2026-04-24 09:24 | 59.66973 | 18.02439 | 2076 ft | 179 kts | 71° |
| 2026-04-24 09:24 | 59.67291 | 18.04932 | 2598 ft | 196 kts | 72° |
| 2026-04-24 09:25 | 59.67621 | 18.07706 | 3009 ft | 218 kts | 73° |
| 2026-04-24 09:25 | 59.67966 | 18.10817 | 3445 ft | 245 kts | 75° |
| 2026-04-24 09:25 | 59.68330 | 18.14223 | 4155 ft | 258 kts | 74° |
| 2026-04-24 09:25 | 59.68698 | 18.17714 | 5103 ft | 262 kts | 74° |
| 2026-04-24 09:26 | 59.69076 | 18.21289 | 6088 ft | 266 kts | 74° |
| 2026-04-24 09:26 | 59.69459 | 18.24899 | 6994 ft | 270 kts | 73° |
| 2026-04-24 09:26 | 59.69854 | 18.28581 | 7852 ft | 276 kts | 73° |
| 2026-04-24 09:26 | 59.70257 | 18.32331 | 8693 ft | 281 kts | 73° |
| 2026-04-24 09:27 | 59.70668 | 18.36150 | 9530 ft | 287 kts | 73° |
| 2026-04-24 09:27 | 59.71088 | 18.40051 | 10301 ft | 294 kts | 73° |
| 2026-04-24 09:27 | 59.71536 | 18.44153 | 10614 ft | 317 kts | 73° |
| 2026-04-24 09:27 | 59.72020 | 18.48569 | 10967 ft | 336 kts | 73° |
| 2026-04-24 09:28 | 59.72514 | 18.53170 | 11633 ft | 344 kts | 73° |
| 2026-04-24 09:28 | 59.73009 | 18.57840 | 12373 ft | 349 kts | 73° |
| 2026-04-24 09:28 | 59.73505 | 18.62588 | 13118 ft | 354 kts | 73° |
| 2026-04-24 09:28 | 59.74002 | 18.67351 | 13843 ft | 359 kts | 73° |
| 2026-04-24 09:29 | 59.74524 | 18.72268 | 14507 ft | 363 kts | 71° |
| 2026-04-24 09:29 | 59.75326 | 18.76928 | 15142 ft | 361 kts | 60° |
| 2026-04-24 09:29 | 59.76556 | 18.81260 | 15830 ft | 359 kts | 50° |
| 2026-04-24 09:29 | 59.77984 | 18.85335 | 16516 ft | 362 kts | 49° |
| 2026-04-24 09:30 | 59.79433 | 18.89474 | 17201 ft | 367 kts | 49° |
| 2026-04-24 09:30 | 59.81389 | 18.95075 | 18114 ft | 372 kts | 49° |
| 2026-04-24 09:30 | 59.82367 | 18.97892 | 18517 ft | 375 kts | 50° |
| 2026-04-24 09:30 | 59.83855 | 19.02192 | 19084 ft | 379 kts | 50° |
| 2026-04-24 09:31 | 59.85356 | 19.06533 | 19658 ft | 383 kts | 50° |
| 2026-04-24 09:31 | 59.86871 | 19.10926 | 20229 ft | 387 kts | 50° |
| 2026-04-24 09:31 | 59.88403 | 19.15374 | 20788 ft | 392 kts | 50° |
| 2026-04-24 09:31 | 59.89953 | 19.19882 | 21373 ft | 396 kts | 50° |
| 2026-04-24 09:32 | 59.90987 | 19.22897 | 21733 ft | 399 kts | 50° |
| 2026-04-24 09:32 | 59.92280 | 19.26691 | 22207 ft | 403 kts | 50° |
| 2026-04-24 09:32 | 59.93864 | 19.31340 | 22759 ft | 407 kts | 50° |
| 2026-04-24 09:32 | 59.95465 | 19.36031 | 23292 ft | 412 kts | 50° |
| 2026-04-24 09:33 | 59.96879 | 19.41080 | 23760 ft | 423 kts | 61° |
| 2026-04-24 09:33 | 59.97829 | 19.46705 | 24214 ft | 432 kts | 71° |
| 2026-04-24 09:33 | 59.98534 | 19.52582 | 24687 ft | 435 kts | 72° |
| 2026-04-24 09:33 | 59.99241 | 19.58467 | 25173 ft | 437 kts | 72° |
| 2026-04-24 09:34 | 59.99956 | 19.64380 | 25648 ft | 439 kts | 72° |
| 2026-04-24 09:34 | 60.00668 | 19.70252 | 26118 ft | 441 kts | 72° |
| 2026-04-24 09:34 | 60.01389 | 19.76211 | 26581 ft | 443 kts | 72° |
| 2026-04-24 09:34 | 60.02115 | 19.82223 | 27039 ft | 445 kts | 72° |
| 2026-04-24 09:35 | 60.02359 | 19.84252 | 27194 ft | 446 kts | 72° |
| 2026-04-24 09:35 | 60.02565 | 19.86043 | 27252 ft | 448 kts | 74° |
| 2026-04-24 09:36 | 60.03161 | 19.92218 | 27668 ft | 450 kts | 74° |
| 2026-04-24 09:36 | 60.03844 | 19.98316 | 28165 ft | 451 kts | 72° |
| 2026-04-24 09:36 | 60.04562 | 20.04150 | 28585 ft | 452 kts | 71° |
| 2026-04-24 09:37 | 60.05343 | 20.10267 | 28905 ft | 454 kts | 71° |
| 2026-04-24 09:37 | 60.06109 | 20.16322 | 28954 ft | 441 kts | 71° |
| 2026-04-24 09:37 | 60.07508 | 20.27989 | 28948 ft | 430 kts | 72° |
| 2026-04-24 09:38 | 60.08845 | 20.39647 | 28952 ft | 429 kts | 72° |
| 2026-04-24 09:38 | 60.10167 | 20.51320 | 28949 ft | 429 kts | 72° |
| 2026-04-24 09:39 | 60.11489 | 20.63077 | 28950 ft | 430 kts | 72° |
| 2026-04-24 09:39 | 60.12796 | 20.74697 | 28946 ft | 430 kts | 72° |
| 2026-04-24 09:40 | 60.14106 | 20.86416 | 28945 ft | 430 kts | 72° |
| 2026-04-24 09:40 | 60.15403 | 20.98132 | 28951 ft | 431 kts | 72° |
| 2026-04-24 09:41 | 60.16687 | 21.09872 | 28954 ft | 431 kts | 72° |
| 2026-04-24 09:41 | 60.17960 | 21.21664 | 28943 ft | 431 kts | 72° |
| 2026-04-24 09:42 | 60.19219 | 21.33440 | 28938 ft | 431 kts | 72° |
| 2026-04-24 09:42 | 60.20473 | 21.45232 | 28939 ft | 431 kts | 72° |
| 2026-04-24 09:43 | 60.21719 | 21.57032 | 28928 ft | 431 kts | 72° |
| 2026-04-24 09:43 | 60.22958 | 21.68832 | 28927 ft | 431 kts | 72° |
| 2026-04-24 09:44 | 60.24177 | 21.80546 | 28921 ft | 431 kts | 72° |
| 2026-04-24 09:44 | 60.25195 | 21.90443 | 28909 ft | 431 kts | 72° |
| 2026-04-24 09:45 | 60.25678 | 21.95140 | 28910 ft | 430 kts | 72° |
| 2026-04-24 09:45 | 60.26276 | 22.01016 | 28641 ft | 424 kts | 72° |
| 2026-04-24 09:45 | 60.26862 | 22.06809 | 28361 ft | 420 kts | 72° |
| 2026-04-24 09:46 | 60.27441 | 22.12550 | 27916 ft | 415 kts | 72° |
| 2026-04-24 09:46 | 60.28012 | 22.18226 | 27453 ft | 412 kts | 72° |
| 2026-04-24 09:46 | 60.28576 | 22.23868 | 27008 ft | 409 kts | 71° |
| 2026-04-24 09:46 | 60.29134 | 22.29480 | 26563 ft | 407 kts | 71° |
| 2026-04-24 09:47 | 60.29689 | 22.35089 | 26117 ft | 405 kts | 71° |
| 2026-04-24 09:47 | 60.30236 | 22.40634 | 25698 ft | 403 kts | 71° |
| 2026-04-24 09:47 | 60.30777 | 22.46159 | 25269 ft | 401 kts | 71° |
| 2026-04-24 09:47 | 60.31312 | 22.51670 | 24846 ft | 399 kts | 71° |
| 2026-04-24 09:48 | 60.31842 | 22.57168 | 24415 ft | 397 kts | 71° |
| 2026-04-24 09:48 | 60.32362 | 22.62564 | 24007 ft | 395 kts | 71° |
| 2026-04-24 09:48 | 60.32885 | 22.67993 | 23591 ft | 393 kts | 71° |
| 2026-04-24 09:48 | 60.33407 | 22.73396 | 23131 ft | 391 kts | 71° |
| 2026-04-24 09:49 | 60.33922 | 22.78775 | 22694 ft | 388 kts | 71° |
| 2026-04-24 09:49 | 60.34427 | 22.84089 | 22277 ft | 384 kts | 71° |
| 2026-04-24 09:49 | 60.34926 | 22.89356 | 21837 ft | 381 kts | 71° |
| 2026-04-24 09:49 | 60.35417 | 22.94565 | 21405 ft | 377 kts | 70° |
| 2026-04-24 09:50 | 60.35902 | 22.99756 | 20951 ft | 374 kts | 70° |
| 2026-04-24 09:50 | 60.36378 | 23.04898 | 20515 ft | 371 kts | 70° |
| 2026-04-24 09:50 | 60.36850 | 23.10011 | 20085 ft | 368 kts | 70° |
| 2026-04-24 09:50 | 60.37318 | 23.15072 | 19645 ft | 366 kts | 70° |
| 2026-04-24 09:51 | 60.37783 | 23.20086 | 19208 ft | 363 kts | 70° |
| 2026-04-24 09:51 | 60.38247 | 23.25105 | 18765 ft | 362 kts | 70° |
| 2026-04-24 09:51 | 60.38702 | 23.30098 | 18333 ft | 359 kts | 70° |
| 2026-04-24 09:51 | 60.39150 | 23.35057 | 17846 ft | 358 kts | 70° |
| 2026-04-24 09:52 | 60.39593 | 23.39981 | 17398 ft | 354 kts | 70° |
| 2026-04-24 09:52 | 60.40031 | 23.44852 | 16970 ft | 350 kts | 70° |
| 2026-04-24 09:52 | 60.40463 | 23.49659 | 16544 ft | 346 kts | 70° |
| 2026-04-24 09:52 | 60.40892 | 23.54429 | 16124 ft | 343 kts | 70° |
| 2026-04-24 09:53 | 60.41316 | 23.59174 | 15690 ft | 340 kts | 71° |
| 2026-04-24 09:53 | 60.41733 | 23.63879 | 15262 ft | 338 kts | 71° |
| 2026-04-24 09:53 | 60.42143 | 23.68542 | 14846 ft | 335 kts | 71° |
| 2026-04-24 09:53 | 60.42545 | 23.73132 | 14448 ft | 333 kts | 71° |
| 2026-04-24 09:54 | 60.42943 | 23.77728 | 14036 ft | 331 kts | 71° |
| 2026-04-24 09:54 | 60.43338 | 23.82306 | 13617 ft | 329 kts | 71° |
| 2026-04-24 09:54 | 60.43732 | 23.86860 | 13176 ft | 327 kts | 71° |
| 2026-04-24 09:54 | 60.44079 | 23.91378 | 12778 ft | 325 kts | 74° |
| 2026-04-24 09:55 | 60.44357 | 23.95915 | 12373 ft | 322 kts | 75° |
| 2026-04-24 09:55 | 60.44597 | 24.00370 | 12172 ft | 313 kts | 75° |
| 2026-04-24 09:55 | 60.44770 | 24.04724 | 11912 ft | 311 kts | 82° |
| 2026-04-24 09:55 | 60.44642 | 24.09121 | 11599 ft | 311 kts | 86° |
| 2026-04-24 09:56 | 60.44503 | 24.13475 | 11179 ft | 310 kts | 86° |
| 2026-04-24 09:56 | 60.44378 | 24.17823 | 10840 ft | 307 kts | 86° |
| 2026-04-24 09:56 | 60.44257 | 24.22154 | 10447 ft | 306 kts | 86° |
| 2026-04-24 09:56 | 60.44134 | 24.26424 | 10079 ft | 301 kts | 86° |
| 2026-04-24 09:57 | 60.44009 | 24.30639 | 9515 ft | 299 kts | 87° |
| 2026-04-24 09:57 | 60.43884 | 24.34761 | 8992 ft | 295 kts | 87° |
| 2026-04-24 09:57 | 60.43765 | 24.38577 | 8593 ft | 290 kts | 87° |
| 2026-04-24 09:57 | 60.43638 | 24.42656 | 8179 ft | 290 kts | 87° |
| 2026-04-24 09:58 | 60.43376 | 24.46729 | 7773 ft | 296 kts | 99° |
| 2026-04-24 09:58 | 60.42594 | 24.50593 | 7346 ft | 297 kts | 116° |
| 2026-04-24 09:58 | 60.41316 | 24.53870 | 6894 ft | 298 kts | 134° |
| 2026-04-24 09:58 | 60.39731 | 24.56546 | 6465 ft | 296 kts | 138° |
| 2026-04-24 09:59 | 60.38147 | 24.59171 | 6031 ft | 293 kts | 137° |
| 2026-04-24 09:59 | 60.36603 | 24.61751 | 5558 ft | 290 kts | 138° |
| 2026-04-24 09:59 | 60.34944 | 24.64103 | 5079 ft | 287 kts | 155° |
| 2026-04-24 09:59 | 60.33045 | 24.64957 | 4814 ft | 285 kts | 182° |
| 2026-04-24 10:00 | 60.31128 | 24.64192 | 4356 ft | 280 kts | 208° |
| 2026-04-24 10:00 | 60.29613 | 24.61978 | 4083 ft | 259 kts | 231° |
| 2026-04-24 10:00 | 60.28412 | 24.59448 | 3945 ft | 243 kts | 222° |
| 2026-04-24 10:00 | 60.26912 | 24.58143 | 3835 ft | 232 kts | 187° |
| 2026-04-24 10:01 | 60.25330 | 24.58584 | 3635 ft | 232 kts | 156° |
| 2026-04-24 10:01 | 60.24029 | 24.60536 | 2993 ft | 238 kts | 133° |
| 2026-04-24 10:01 | 60.22808 | 24.62845 | 2555 ft | 240 kts | 135° |
| 2026-04-24 10:01 | 60.21866 | 24.65463 | 2359 ft | 225 kts | 105° |
| 2026-04-24 10:02 | 60.21763 | 24.68376 | 2320 ft | 197 kts | 72° |
| 2026-04-24 10:02 | 60.22310 | 24.70738 | 2323 ft | 181 kts | 46° |
| 2026-04-24 10:02 | 60.23140 | 24.72574 | 2307 ft | 176 kts | 42° |
| 2026-04-24 10:02 | 60.23971 | 24.74374 | 2259 ft | 177 kts | 41° |
| 2026-04-24 10:03 | 60.24799 | 24.76175 | 2069 ft | 174 kts | 41° |
| 2026-04-24 10:03 | 60.25610 | 24.77948 | 1821 ft | 166 kts | 42° |
| 2026-04-24 10:03 | 60.26367 | 24.79603 | 1627 ft | 158 kts | 41° |
| 2026-04-24 10:03 | 60.27098 | 24.81198 | 1404 ft | 151 kts | 41° |
| 2026-04-24 10:04 | 60.27768 | 24.82670 | 1185 ft | 136 kts | 40° |
| 2026-04-24 10:04 | 60.28396 | 24.84042 | 995 ft | 132 kts | 40° |
| 2026-04-24 10:04 | 60.29013 | 24.85395 | 820 ft | 133 kts | 39° |
| 2026-04-24 10:04 | 60.29645 | 24.86790 | 629 ft | 137 kts | 40° |
| 2026-04-24 10:05 | 60.30296 | 24.88208 | 462 ft | 139 kts | 40° |
| 2026-04-24 10:05 | 60.30941 | 24.89623 | 285 ft | 139 kts | 40° |
| 2026-04-24 10:05 | 60.31587 | 24.91038 | 150 ft | 129 kts | 44° |
| 2026-04-24 10:05 | 60.32106 | 24.92170 | 159 ft | 91 kts | 47° |
| 2026-04-24 10:06 | 60.32473 | 24.92973 | 175 ft | 67 kts | 47° |
| 2026-04-24 10:06 | 60.32929 | 24.93983 | 189 ft | 26 kts | 47° |
| 2026-04-24 10:06 | 60.33011 | 24.94161 | 193 ft | 26 kts | 46° |
| 2026-04-24 10:07 | 60.33044 | 24.94452 | 185 ft | 23 kts | 95° |
| 2026-04-24 10:07 | 60.33036 | 24.94779 | 179 ft | 21 kts | 82° |
| 2026-04-24 10:07 | 60.33106 | 24.94981 | 178 ft | 13 kts | 80° |
| 2026-04-24 10:07 | 60.33118 | 24.95181 | 177 ft | 16 kts | 62° |
| 2026-04-24 10:08 | 60.33189 | 24.95352 | 180 ft | 15 kts | 49° |
| 2026-04-24 10:08 | 60.33196 | 24.95538 | 182 ft | 15 kts | 121° |
| 2026-04-24 10:08 | 60.33110 | 24.95701 | 180 ft | 18 kts | 137° |
| 2026-04-24 10:08 | 60.33001 | 24.95848 | 180 ft | 20 kts | 149° |
| 2026-04-24 10:09 | 60.32864 | 24.96013 | 174 ft | 25 kts | 149° |
| 2026-04-24 10:09 | 60.32711 | 24.96190 | 172 ft | 22 kts | 150° |
| 2026-04-24 10:09 | 60.32631 | 24.96282 | 173 ft | 2 kts | 150° |
| 2026-04-24 10:09 | 60.32613 | 24.96303 | 173 ft | 4 kts | 149° |
| 2026-04-24 10:10 | 60.32586 | 24.96335 | 173 ft | 6 kts | 149° |
| 2026-04-24 10:10 | 60.32529 | 24.96402 | 174 ft | 14 kts | 149° |
| 2026-04-24 10:10 | 60.32434 | 24.96513 | 176 ft | 16 kts | 149° |
| 2026-04-24 10:10 | 60.32320 | 24.96646 | 169 ft | 19 kts | 148° |
| 2026-04-24 10:11 | 60.32206 | 24.96778 | 165 ft | 17 kts | 150° |
| 2026-04-24 10:11 | 60.32137 | 24.96864 | 164 ft | 7 kts | 148° |
| 2026-04-24 10:11 | 60.32113 | 24.96883 | 164 ft | 4 kts | 168° |
| 2026-04-24 10:11 | 60.32085 | 24.96881 | 163 ft | 4 kts | 187° |
| 2026-04-24 10:12 | 60.32050 | 24.96865 | 163 ft | 6 kts | 193° |
| 2026-04-24 10:12 | 60.32036 | 24.96859 | 163 ft | 2 kts | 193° |
| 2026-04-24 10:12 | 60.32015 | 24.96849 | 163 ft | 2 kts | 193° |
| 2026-04-24 10:12 | 60.32012 | 24.96848 | 163 ft | 0 kts | 193° |